Terminal Aerodrome Forecast
Issued by NWS

Home | Current Version | Previous Version | Text Only | Print | Product List | Glossary On
Versions: 1 2 3 4 5 6 7 8 9 10 11 12
725
FTUS46 KSEW 292342
TAFCLM
TAF
KCLM 292342Z 3000/3024 VRB03KT P6SM -RA OVC060
     FM300400 26012G20KT P6SM -SHRA SCT035 BKN050
     FM300800 27010KT P6SM VCSH SCT050
      TEMPO 3017/3021 -SHRA BKN050
     FM302200 31014G22KT P6SM SCT050 BKN200=

USA.gov is the U.S. government's official web portal to all federal, state and local government web resources and services.